Time;durP1;ratioP1;P1;durP2;ratioP2;P2;SDS_P1;SDS_P2;PMS_P1;PMS_P2;Temp;Humidity;BMP_temperature;BMP_pressure;BME280_temperature;BME280_humidity;BME280_pressure;Samples;Min_cycle;Max_cycle;Signal;HPM_P1;HPM_P2
2023/05/21 00:00:09;;;;;;;14.13;12.63;;;15.30;99.90;;;;;;5203558;28;20223;-46
2023/05/21 00:02:40;;;;;;;25.03;13.13;;;15.20;99.90;;;;;;5201190;28;20225;-46
2023/05/21 00:05:13;;;;;;;20.83;13.10;;;15.20;99.90;;;;;;5204138;28;20539;-45
2023/05/21 00:07:44;;;;;;;17.23;13.57;;;15.10;99.90;;;;;;5200420;28;20690;-46
2023/05/21 00:10:15;;;;;;;16.93;12.13;;;15.10;99.90;;;;;;5199146;28;20438;-46
2023/05/21 00:12:45;;;;;;;16.13;12.90;;;15.10;99.90;;;;;;5201090;28;20437;-45
2023/05/21 00:15:16;;;;;;;15.90;12.07;;;15.10;99.90;;;;;;5204113;28;20180;-46
2023/05/21 00:17:47;;;;;;;18.73;13.10;;;15.00;99.90;;;;;;5199511;28;20300;-46
2023/05/21 00:20:17;;;;;;;20.27;13.47;;;15.00;99.90;;;;;;5203177;28;20556;-47
2023/05/21 00:22:48;;;;;;;18.00;14.23;;;15.00;99.90;;;;;;5198648;28;20184;-46
2023/05/21 00:25:18;;;;;;;17.27;13.30;;;15.00;99.90;;;;;;5199672;28;20191;-46
2023/05/21 00:27:49;;;;;;;17.57;13.60;;;15.00;99.90;;;;;;5202683;28;20258;-47
2023/05/21 00:30:20;;;;;;;18.63;13.80;;;14.90;99.90;;;;;;5205617;28;20699;-47
2023/05/21 00:32:51;;;;;;;24.77;14.40;;;14.90;99.90;;;;;;5206791;28;20207;-45
2023/05/21 00:35:21;;;;;;;18.00;13.20;;;14.80;99.90;;;;;;5203805;28;20211;-44
2023/05/21 00:37:52;;;;;;;20.13;13.50;;;14.80;99.90;;;;;;5204580;28;20353;-45
2023/05/21 00:40:23;;;;;;;20.53;13.07;;;14.80;99.90;;;;;;5201275;28;20195;-46
2023/05/21 00:42:55;;;;;;;20.90;13.87;;;14.80;99.90;;;;;;5205588;28;20422;-46
2023/05/21 00:45:28;;;;;;;17.87;12.90;;;14.80;99.90;;;;;;5202128;28;20188;-45
2023/05/21 00:47:58;;;;;;;19.93;13.20;;;14.70;99.90;;;;;;5207039;28;20830;-45
2023/05/21 00:50:30;;;;;;;17.40;12.67;;;14.80;99.90;;;;;;5204468;28;20434;-46
2023/05/21 00:53:01;;;;;;;16.90;12.90;;;14.70;99.90;;;;;;5202985;28;20207;-44
2023/05/21 00:55:32;;;;;;;14.50;12.43;;;14.70;99.90;;;;;;5200542;28;20965;-48
2023/05/21 00:58:03;;;;;;;16.73;13.60;;;14.70;99.90;;;;;;5203567;28;20229;-45
2023/05/21 01:00:36;;;;;;;15.13;12.87;;;14.70;99.90;;;;;;5203696;28;20641;-45
2023/05/21 01:03:07;;;;;;;17.60;13.77;;;14.70;99.90;;;;;;5201646;28;20446;-45
2023/05/21 01:05:37;;;;;;;20.27;12.37;;;14.60;99.90;;;;;;5195081;28;20470;-45
2023/05/21 01:08:09;;;;;;;19.80;12.87;;;14.60;99.90;;;;;;5201003;28;20214;-46
2023/05/21 01:10:39;;;;;;;15.03;13.10;;;14.60;99.90;;;;;;5202088;28;20655;-45
2023/05/21 01:13:10;;;;;;;18.50;13.80;;;14.60;99.90;;;;;;5202654;28;20442;-46
2023/05/21 01:15:43;;;;;;;20.57;15.00;;;14.60;99.90;;;;;;5204162;28;20188;-48
2023/05/21 01:18:14;;;;;;;18.53;14.23;;;14.50;99.90;;;;;;5208633;28;20504;-46
2023/05/21 01:20:49;;;;;;;19.80;14.63;;;14.50;99.90;;;;;;5205409;28;20469;-46
2023/05/21 01:23:19;;;;;;;18.30;14.60;;;14.50;99.90;;;;;;5201268;28;20500;-45
2023/05/21 01:25:50;;;;;;;20.90;14.83;;;14.50;99.90;;;;;;5206138;28;20553;-46
2023/05/21 01:28:21;;;;;;;21.70;14.70;;;14.50;99.90;;;;;;5202329;28;20258;-45
2023/05/21 01:30:51;;;;;;;16.93;14.50;;;14.50;99.90;;;;;;5199026;28;20249;-46
2023/05/21 01:33:31;;;;;;;22.80;13.60;;;14.50;99.90;;;;;;5204417;28;20187;-45
2023/05/21 01:36:14;;;;;;;22.13;15.67;;;14.50;99.90;;;;;;5204462;28;20206;-46
2023/05/21 01:39:06;;;;;;;24.97;15.47;;;14.50;99.90;;;;;;5207203;28;20431;-46
2023/05/21 01:41:42;;;;;;;20.83;14.03;;;14.40;99.90;;;;;;5203027;28;20430;-46
2023/05/21 01:44:16;;;;;;;19.53;15.57;;;14.40;99.90;;;;;;5204974;28;20504;-46
2023/05/21 01:46:48;;;;;;;22.10;14.60;;;14.40;99.90;;;;;;5197428;28;20477;-46
2023/05/21 01:49:20;;;;;;;21.30;15.43;;;14.40;99.90;;;;;;5203291;28;20440;-47
2023/05/21 01:51:51;;;;;;;15.13;13.53;;;14.40;99.90;;;;;;5204166;28;20435;-46
2023/05/21 01:54:22;;;;;;;21.20;14.57;;;14.40;99.90;;;;;;5205815;28;20814;-46
2023/05/21 01:56:54;;;;;;;19.60;15.67;;;14.40;99.90;;;;;;5204257;28;20238;-46
2023/05/21 01:59:26;;;;;;;25.40;15.60;;;14.40;99.90;;;;;;5202915;28;20435;-46
2023/05/21 02:01:57;;;;;;;21.83;17.17;;;14.40;99.90;;;;;;5197828;28;20795;-46
2023/05/21 02:04:27;;;;;;;20.43;14.13;;;14.40;99.90;;;;;;5189342;28;20492;-45
2023/05/21 02:06:58;;;;;;;22.93;16.20;;;14.40;99.90;;;;;;5204606;28;21092;-46
2023/05/21 02:09:28;;;;;;;22.40;17.00;;;14.40;99.90;;;;;;5204598;28;20179;-45
2023/05/21 02:12:00;;;;;;;22.77;16.80;;;14.30;99.90;;;;;;5202615;28;20648;-47
2023/05/21 02:14:32;;;;;;;28.80;18.57;;;14.30;99.90;;;;;;5201715;28;20656;-47
2023/05/21 02:17:03;;;;;;;23.63;16.70;;;14.30;99.90;;;;;;5201930;28;20493;-46
2023/05/21 02:19:34;;;;;;;21.43;16.33;;;14.30;99.90;;;;;;5193423;28;20489;-46
2023/05/21 02:22:04;;;;;;;24.30;16.23;;;14.30;99.90;;;;;;5203143;28;20434;-45
2023/05/21 02:24:35;;;;;;;21.27;16.83;;;14.30;99.90;;;;;;5208318;28;20271;-46
2023/05/21 02:27:06;;;;;;;23.60;17.33;;;14.20;99.90;;;;;;5206232;28;20230;-47
2023/05/21 02:29:36;;;;;;;23.17;17.40;;;14.20;99.90;;;;;;5202848;28;20271;-46
2023/05/21 02:32:07;;;;;;;23.33;18.10;;;14.20;99.90;;;;;;5203255;28;20625;-45
2023/05/21 02:34:41;;;;;;;25.27;16.77;;;14.20;99.90;;;;;;5203057;28;20274;-45
2023/05/21 02:37:11;;;;;;;30.20;19.20;;;14.20;99.90;;;;;;5204068;28;20225;-46
2023/05/21 02:39:42;;;;;;;21.73;18.30;;;14.20;99.90;;;;;;5204155;28;20442;-46
2023/05/21 02:42:12;;;;;;;24.40;18.57;;;14.20;99.90;;;;;;5205024;28;20190;-46
2023/05/21 02:44:43;;;;;;;24.30;18.13;;;14.20;99.90;;;;;;5201634;28;20644;-47
2023/05/21 02:47:14;;;;;;;29.47;19.60;;;14.10;99.90;;;;;;5203139;28;20211;-45
2023/05/21 02:49:45;;;;;;;25.63;18.83;;;14.10;99.90;;;;;;5199053;28;20176;-45
2023/05/21 02:52:17;;;;;;;26.67;19.10;;;14.10;99.90;;;;;;5197495;28;20184;-46
2023/05/21 02:54:48;;;;;;;28.40;20.00;;;14.10;99.90;;;;;;5194298;28;20974;-46
2023/05/21 02:57:18;;;;;;;33.93;21.60;;;14.10;99.90;;;;;;5182434;28;20462;-46
2023/05/21 02:59:49;;;;;;;29.33;20.93;;;14.10;99.90;;;;;;5204300;28;20190;-46
2023/05/21 03:02:20;;;;;;;31.13;19.53;;;14.20;99.90;;;;;;5203482;28;20279;-46
2023/05/21 03:04:50;;;;;;;29.97;20.83;;;14.20;99.90;;;;;;5202311;28;20267;-45
2023/05/21 03:07:21;;;;;;;29.73;20.97;;;14.20;99.90;;;;;;5199944;28;20215;-46
2023/05/21 03:09:51;;;;;;;31.07;21.67;;;14.20;99.90;;;;;;5201338;28;20191;-46
2023/05/21 03:12:22;;;;;;;33.87;21.07;;;14.20;99.90;;;;;;5203652;28;21145;-45
2023/05/21 03:14:53;;;;;;;34.83;22.27;;;14.20;99.90;;;;;;5203880;28;20180;-46
2023/05/21 03:17:23;;;;;;;31.50;21.83;;;14.20;99.90;;;;;;5199230;28;20615;-46
2023/05/21 03:19:54;;;;;;;33.37;21.20;;;14.30;99.90;;;;;;5201206;28;20187;-44
2023/05/21 03:22:25;;;;;;;26.50;20.93;;;14.30;99.90;;;;;;5202015;28;20575;-44
2023/05/21 03:24:57;;;;;;;30.73;21.60;;;14.30;99.90;;;;;;5202876;28;20437;-45
2023/05/21 03:27:27;;;;;;;29.53;21.23;;;14.30;99.90;;;;;;5200368;28;20758;-45
2023/05/21 03:29:58;;;;;;;32.80;21.37;;;14.30;99.90;;;;;;5201204;28;20435;-46
2023/05/21 03:32:28;;;;;;;30.30;20.97;;;14.40;99.90;;;;;;5198141;28;20545;-46
2023/05/21 03:34:59;;;;;;;28.83;22.20;;;14.40;99.90;;;;;;5200917;28;20176;-46
2023/05/21 03:37:30;;;;;;;28.50;22.70;;;14.40;99.90;;;;;;5200101;28;20302;-46
2023/05/21 03:40:02;;;;;;;31.00;22.80;;;14.50;99.90;;;;;;5186251;28;20187;-46
2023/05/21 03:42:32;;;;;;;26.83;22.30;;;14.50;99.90;;;;;;5200973;28;20307;-45
2023/05/21 03:45:03;;;;;;;26.37;20.87;;;14.50;99.90;;;;;;5202984;28;21010;-46
2023/05/21 03:47:35;;;;;;;34.03;21.70;;;14.60;99.90;;;;;;5199062;28;20587;-45
2023/05/21 03:50:06;;;;;;;27.83;21.00;;;14.60;99.90;;;;;;5200744;28;20184;-46
2023/05/21 03:52:37;;;;;;;25.97;21.20;;;14.70;99.90;;;;;;5201719;28;20438;-46
2023/05/21 03:55:08;;;;;;;29.40;21.40;;;14.70;99.90;;;;;;5198510;28;20427;-46
2023/05/21 03:57:40;;;;;;;30.90;22.33;;;14.80;99.90;;;;;;5200776;28;20241;-46
2023/05/21 04:00:11;;;;;;;27.37;21.27;;;14.80;99.90;;;;;;5192841;28;20426;-46
2023/05/21 04:02:42;;;;;;;34.57;20.10;;;14.90;99.90;;;;;;5201500;28;20495;-44
2023/05/21 04:05:12;;;;;;;26.37;21.17;;;15.00;99.90;;;;;;5204581;28;20191;-46
2023/05/21 04:07:45;;;;;;;32.20;21.40;;;15.00;99.90;;;;;;5206544;28;20278;-44
2023/05/21 04:10:15;;;;;;;30.53;21.53;;;15.10;99.90;;;;;;5205664;28;20240;-45
2023/05/21 04:12:47;;;;;;;31.97;21.57;;;15.10;99.90;;;;;;5205971;28;20959;-45
2023/05/21 04:15:18;;;;;;;28.80;20.50;;;15.10;99.90;;;;;;5204255;28;20215;-46
2023/05/21 04:17:49;;;;;;;28.30;20.90;;;15.20;99.90;;;;;;5203007;28;20481;-46
2023/05/21 04:20:21;;;;;;;28.30;19.77;;;15.40;99.90;;;;;;5204978;28;20214;-46
2023/05/21 04:22:51;;;;;;;29.93;21.13;;;15.60;99.90;;;;;;5206636;28;20430;-46
2023/05/21 04:25:22;;;;;;;31.83;20.37;;;15.80;99.90;;;;;;5203174;28;20183;-45
2023/05/21 04:27:53;;;;;;;29.00;20.87;;;15.80;99.90;;;;;;5200694;28;20691;-46
2023/05/21 04:30:24;;;;;;;30.83;19.83;;;15.80;99.90;;;;;;5202582;28;20184;-45
2023/05/21 04:32:54;;;;;;;26.97;19.50;;;15.80;99.90;;;;;;5199575;28;20872;-45
2023/05/21 04:35:26;;;;;;;26.20;20.23;;;15.80;99.90;;;;;;5204131;28;20542;-45
2023/05/21 04:37:56;;;;;;;29.37;20.60;;;15.90;99.90;;;;;;5207027;28;20203;-45
2023/05/21 04:40:27;;;;;;;28.97;19.63;;;16.10;99.90;;;;;;5205192;28;20449;-46
2023/05/21 04:42:59;;;;;;;25.57;19.97;;;16.20;99.90;;;;;;5203075;28;20604;-46
2023/05/21 04:45:30;;;;;;;22.53;18.53;;;16.30;99.90;;;;;;5204889;28;20183;-45
2023/05/21 04:48:01;;;;;;;22.47;17.90;;;16.40;99.90;;;;;;5208504;28;20527;-44
2023/05/21 04:50:32;;;;;;;20.77;17.53;;;16.70;99.90;;;;;;5203497;28;20200;-44
2023/05/21 04:53:03;;;;;;;22.50;18.13;;;17.10;99.90;;;;;;5207927;28;20468;-45
2023/05/21 04:55:38;;;;;;;23.20;17.23;;;17.60;99.90;;;;;;5205616;28;20180;-45
2023/05/21 04:58:12;;;;;;;22.70;17.90;;;18.20;99.90;;;;;;5203905;28;20222;-45
2023/05/21 05:00:44;;;;;;;22.70;17.30;;;19.00;99.90;;;;;;5206984;28;20914;-45
2023/05/21 05:03:15;;;;;;;22.63;17.60;;;19.60;99.90;;;;;;5207828;28;20422;-46
2023/05/21 05:05:46;;;;;;;21.53;15.67;;;20.20;99.90;;;;;;5205350;28;20508;-45
2023/05/21 05:08:17;;;;;;;25.10;15.43;;;21.20;99.90;;;;;;5206516;28;20200;-45
2023/05/21 05:10:47;;;;;;;18.90;13.60;;;21.70;99.90;;;;;;5207710;28;20180;-45
2023/05/21 05:13:18;;;;;;;18.90;14.70;;;22.00;99.90;;;;;;5203610;28;20191;-45
2023/05/21 05:15:48;;;;;;;18.10;14.33;;;22.30;99.90;;;;;;5207264;28;22008;-46
2023/05/21 05:18:19;;;;;;;20.17;15.93;;;22.40;99.90;;;;;;5207154;28;20223;-45
2023/05/21 05:20:50;;;;;;;19.60;13.30;;;22.90;99.90;;;;;;5209019;28;20538;-45
2023/05/21 05:23:20;;;;;;;21.77;14.00;;;23.30;99.90;;;;;;5199963;28;20194;-45
2023/05/21 05:25:51;;;;;;;16.30;13.70;;;23.20;99.90;;;;;;5203844;28;20222;-44
2023/05/21 05:28:22;;;;;;;22.77;14.60;;;22.80;99.90;;;;;;5205095;28;20231;-46
2023/05/21 05:30:52;;;;;;;15.70;14.00;;;22.70;99.90;;;;;;5184115;28;20180;-44
2023/05/21 05:33:23;;;;;;;22.93;14.60;;;22.70;99.90;;;;;;5205446;28;20645;-45
2023/05/21 05:35:54;;;;;;;18.97;15.37;;;22.80;99.90;;;;;;5205327;28;20660;-46
2023/05/21 05:38:26;;;;;;;24.20;15.40;;;22.90;99.90;;;;;;5204343;28;20175;-46
2023/05/21 05:40:56;;;;;;;22.93;14.53;;;23.00;99.90;;;;;;5203670;28;20176;-46
2023/05/21 05:43:27;;;;;;;20.53;14.93;;;23.20;99.90;;;;;;5202946;28;20445;-46
2023/05/21 05:45:58;;;;;;;15.70;13.63;;;23.00;99.90;;;;;;5202118;28;20208;-46
2023/05/21 05:48:30;;;;;;;26.63;15.33;;;23.20;99.40;;;;;;5204960;28;20207;-45
2023/05/21 05:51:00;;;;;;;32.20;14.57;;;23.00;99.70;;;;;;5202405;28;20430;-46
2023/05/21 05:53:31;;;;;;;19.50;15.50;;;23.00;99.90;;;;;;5204989;28;20441;-46
2023/05/21 05:56:01;;;;;;;17.60;14.57;;;22.80;99.90;;;;;;5212204;28;20200;-46
2023/05/21 05:58:32;;;;;;;17.20;13.57;;;22.60;99.70;;;;;;5204335;28;20183;-46
2023/05/21 06:01:03;;;;;;;17.87;14.30;;;22.70;99.90;;;;;;5206000;28;20183;-46
2023/05/21 06:03:33;;;;;;;22.80;14.73;;;22.60;99.90;;;;;;5193082;28;20211;-44
2023/05/21 06:06:04;;;;;;;19.07;14.83;;;22.80;99.90;;;;;;5215254;28;20211;-46
2023/05/21 06:08:34;;;;;;;19.03;14.00;;;23.10;98.60;;;;;;5204219;28;20269;-47
2023/05/21 06:11:05;;;;;;;18.57;13.70;;;22.70;98.80;;;;;;5201941;28;20566;-45
2023/05/21 06:13:36;;;;;;;17.73;14.60;;;22.20;99.90;;;;;;5200262;28;20180;-47
2023/05/21 06:16:08;;;;;;;18.97;14.67;;;21.80;99.90;;;;;;5203957;28;20211;-47
2023/05/21 06:18:39;;;;;;;16.80;14.37;;;21.70;99.90;;;;;;5204334;28;20172;-47
2023/05/21 06:21:10;;;;;;;24.70;15.43;;;21.50;99.90;;;;;;5213706;28;20755;-46
2023/05/21 06:23:41;;;;;;;19.10;15.37;;;21.30;99.90;;;;;;5203557;28;20675;-46
2023/05/21 06:26:12;;;;;;;18.57;13.40;;;21.20;99.90;;;;;;5203248;28;20515;-47
2023/05/21 06:28:42;;;;;;;19.40;15.03;;;21.00;99.90;;;;;;5203845;28;20211;-45
2023/05/21 06:31:13;;;;;;;20.57;14.83;;;20.60;99.90;;;;;;5205920;28;20179;-47
2023/05/21 06:33:43;;;;;;;17.07;13.53;;;20.30;99.90;;;;;;5203039;28;20188;-48
2023/05/21 06:36:15;;;;;;;18.53;14.73;;;20.10;99.90;;;;;;5204489;28;20559;-47
2023/05/21 06:38:46;;;;;;;23.27;14.07;;;20.10;99.90;;;;;;5203425;28;20191;-46
2023/05/21 06:41:17;;;;;;;16.37;14.10;;;20.20;99.90;;;;;;5204108;28;20969;-47
2023/05/21 06:43:47;;;;;;;16.60;13.67;;;20.40;99.90;;;;;;5202530;28;20446;-46
2023/05/21 06:46:18;;;;;;;17.57;13.33;;;20.60;99.90;;;;;;5200184;28;20268;-47
2023/05/21 06:48:49;;;;;;;17.60;12.53;;;20.60;99.90;;;;;;5201469;28;20211;-46
2023/05/21 06:51:20;;;;;;;20.97;14.83;;;20.70;99.90;;;;;;5201785;28;20633;-46
2023/05/21 06:53:51;;;;;;;18.17;14.30;;;20.60;99.90;;;;;;5203893;28;20178;-47
2023/05/21 06:56:21;;;;;;;19.10;13.57;;;20.80;99.90;;;;;;5203426;28;20208;-47
2023/05/21 06:58:53;;;;;;;20.63;12.53;;;21.00;99.90;;;;;;5202361;28;20187;-47
2023/05/21 07:01:23;;;;;;;20.33;13.33;;;21.20;99.90;;;;;;5202856;28;20184;-47
2023/05/21 07:03:54;;;;;;;19.67;13.80;;;21.30;99.90;;;;;;5195599;28;20442;-47
2023/05/21 07:06:25;;;;;;;18.97;13.80;;;21.20;99.90;;;;;;5197701;28;20644;-47
2023/05/21 07:08:55;;;;;;;17.57;13.73;;;21.10;99.90;;;;;;5198561;28;20204;-47
2023/05/21 07:11:27;;;;;;;15.50;12.20;;;21.30;99.90;;;;;;5198465;28;20548;-47
2023/05/21 07:14:02;;;;;;;13.97;12.07;;;21.60;99.90;;;;;;5185964;28;20182;-47
2023/05/21 07:16:33;;;;;;;19.87;12.30;;;21.70;99.90;;;;;;5197930;28;20469;-47
2023/05/21 07:19:04;;;;;;;20.67;12.60;;;22.00;99.90;;;;;;5182096;28;20947;-45
2023/05/21 07:21:34;;;;;;;15.77;11.47;;;22.20;99.90;;;;;;5204030;28;20274;-45
2023/05/21 07:24:05;;;;;;;19.60;13.87;;;22.80;99.90;;;;;;5199510;28;20247;-47
2023/05/21 07:26:36;;;;;;;15.37;12.47;;;23.60;99.90;;;;;;5200060;28;20203;-47
2023/05/21 07:29:06;;;;;;;14.03;11.57;;;25.10;95.20;;;;;;5191987;28;20269;-46
2023/05/21 07:31:37;;;;;;;15.03;11.13;;;26.10;86.70;;;;;;5172429;28;20179;-46
2023/05/21 07:34:07;;;;;;;11.27;10.17;;;27.20;75.90;;;;;;5200970;28;20180;-46
2023/05/21 07:36:38;;;;;;;21.63;11.13;;;28.20;67.30;;;;;;5203900;28;20210;-47
2023/05/21 07:39:09;;;;;;;15.03;11.00;;;28.80;61.20;;;;;;5204645;28;20172;-48
2023/05/21 07:41:40;;;;;;;14.50;10.70;;;28.10;58.70;;;;;;5205834;28;20180;-47
2023/05/21 07:44:10;;;;;;;22.17;10.57;;;27.80;60.50;;;;;;5205736;28;20747;-46
2023/05/21 07:46:41;;;;;;;11.60;9.60;;;28.50;58.00;;;;;;5206909;28;20210;-47
2023/05/21 07:49:15;;;;;;;12.07;10.40;;;29.10;56.30;;;;;;5204746;28;20294;-48
2023/05/21 07:51:46;;;;;;;20.03;11.00;;;29.80;53.60;;;;;;5203331;28;20184;-45
2023/05/21 07:54:17;;;;;;;9.97;8.97;;;30.10;53.00;;;;;;5204512;28;20445;-46
2023/05/21 07:56:47;;;;;;;11.17;10.03;;;30.20;51.80;;;;;;5207107;28;20196;-47
2023/05/21 07:59:18;;;;;;;15.83;9.67;;;30.20;51.30;;;;;;5205986;28;20250;-47
2023/05/21 08:01:49;;;;;;;12.83;9.80;;;29.90;51.10;;;;;;5203006;28;20235;-47
2023/05/21 08:04:19;;;;;;;33.17;10.80;;;30.10;51.10;;;;;;5186733;28;20195;-47
2023/05/21 08:06:50;;;;;;;10.47;9.30;;;30.10;49.90;;;;;;5206465;28;20269;-48
2023/05/21 08:09:21;;;;;;;12.13;9.80;;;29.80;50.80;;;;;;5202395;28;20216;-46
2023/05/21 08:11:51;;;;;;;10.97;9.03;;;29.80;50.30;;;;;;5198653;28;20190;-46
2023/05/21 08:14:22;;;;;;;9.83;8.80;;;29.50;50.70;;;;;;5203977;28;20258;-48
2023/05/21 08:16:53;;;;;;;11.53;9.23;;;29.50;50.80;;;;;;5202661;28;20235;-47
2023/05/21 08:19:23;;;;;;;16.43;9.23;;;29.60;50.90;;;;;;5198244;28;20666;-47
2023/05/21 08:21:54;;;;;;;11.80;9.03;;;29.80;50.50;;;;;;5202753;28;20211;-47
2023/05/21 08:24:25;;;;;;;9.10;8.23;;;29.80;48.80;;;;;;5204651;28;20207;-47
2023/05/21 08:26:55;;;;;;;13.70;9.00;;;29.60;49.90;;;;;;5199095;28;21327;-48
2023/05/21 08:29:26;;;;;;;12.40;9.07;;;29.50;49.80;;;;;;5201089;28;20211;-48
2023/05/21 08:31:57;;;;;;;9.00;8.17;;;29.10;50.50;;;;;;5199008;28;20274;-48
2023/05/21 08:34:27;;;;;;;13.10;9.47;;;28.80;50.90;;;;;;5198834;28;20187;-47
2023/05/21 08:36:58;;;;;;;26.67;7.53;;;28.60;51.50;;;;;;5201459;28;20307;-47
2023/05/21 08:39:28;;;;;;;17.93;9.80;;;28.10;52.00;;;;;;5199138;28;20188;-46
2023/05/21 08:42:14;;;;;;;16.20;8.90;;;28.00;52.30;;;;;;5200748;28;20509;-47
2023/05/21 08:44:50;;;;;;;13.30;8.60;;;27.70;52.90;;;;;;5199288;28;20273;-47
2023/05/21 08:47:25;;;;;;;13.43;8.43;;;26.90;54.60;;;;;;5202557;28;20446;-46
2023/05/21 08:49:56;;;;;;;11.93;8.70;;;26.00;56.30;;;;;;5201303;28;20431;-46
2023/05/21 08:52:27;;;;;;;15.23;8.60;;;25.00;58.70;;;;;;5200708;28;20430;-45
2023/05/21 08:54:58;;;;;;;10.60;8.33;;;24.70;59.60;;;;;;5205109;28;20430;-48
2023/05/21 08:57:30;;;;;;;24.33;9.40;;;24.70;60.00;;;;;;5200827;28;20191;-48
2023/05/21 09:00:03;;;;;;;8.73;7.73;;;24.60;61.10;;;;;;5198500;28;20810;-48
2023/05/21 09:02:37;;;;;;;12.30;8.17;;;24.80;61.30;;;;;;5200507;28;20483;-47
2023/05/21 09:05:08;;;;;;;9.63;7.80;;;24.80;60.10;;;;;;5202751;28;20439;-47
2023/05/21 09:07:47;;;;;;;11.30;8.13;;;24.50;61.40;;;;;;5185627;28;20457;-46
2023/05/21 09:10:22;;;;;;;8.30;7.50;;;24.50;61.80;;;;;;5198067;28;20509;-48
2023/05/21 09:12:53;;;;;;;14.43;7.13;;;24.40;61.40;;;;;;5201393;28;20431;-46
2023/05/21 09:15:24;;;;;;;9.20;7.37;;;24.40;62.20;;;;;;5197863;28;20496;-45
2023/05/21 09:17:55;;;;;;;16.47;8.57;;;24.30;61.70;;;;;;5197361;28;21202;-46
2023/05/21 09:20:27;;;;;;;12.83;7.53;;;24.20;62.70;;;;;;5203003;28;20207;-47
2023/05/21 09:23:02;;;;;;;9.13;7.23;;;24.30;63.00;;;;;;5197350;28;20231;-47
2023/05/21 09:25:37;;;;;;;8.33;7.53;;;24.30;62.80;;;;;;5203701;28;20461;-47
2023/05/21 09:28:12;;;;;;;13.03;8.70;;;24.40;62.90;;;;;;5199330;28;20485;-46
2023/05/21 09:30:44;;;;;;;8.87;7.87;;;24.40;62.00;;;;;;5201068;28;20815;-47
2023/05/21 09:33:25;;;;;;;11.20;7.90;;;24.30;62.90;;;;;;5196548;28;20461;-47
2023/05/21 09:35:57;;;;;;;13.10;8.07;;;24.50;62.80;;;;;;5200108;28;21815;-48
2023/05/21 09:38:28;;;;;;;10.47;7.10;;;24.90;62.90;;;;;;5200469;28;20430;-47
2023/05/21 09:41:03;;;;;;;9.37;7.80;;;25.00;61.70;;;;;;5205167;28;20430;-46
2023/05/21 09:43:33;;;;;;;16.33;9.07;;;24.80;62.10;;;;;;5206137;28;20537;-47
2023/05/21 09:46:04;;;;;;;8.33;7.60;;;24.70;62.10;;;;;;5204221;28;20545;-46
2023/05/21 09:48:36;;;;;;;10.83;7.10;;;24.70;62.90;;;;;;5204446;28;20195;-46
2023/05/21 09:51:14;;;;;;;7.50;6.80;;;24.90;63.10;;;;;;5202645;28;20560;-45
2023/05/21 09:53:58;;;;;;;7.90;6.60;;;24.80;61.80;;;;;;5204646;28;20771;-47
2023/05/21 09:56:30;;;;;;;8.40;6.57;;;24.90;62.20;;;;;;5202289;28;20745;-48
2023/05/21 09:59:05;;;;;;;15.13;7.00;;;24.90;61.60;;;;;;5202068;28;20435;-46
2023/05/21 10:01:37;;;;;;;10.33;7.10;;;24.90;62.10;;;;;;5200990;28;20438;-46
2023/05/21 10:04:08;;;;;;;17.67;7.20;;;24.70;62.00;;;;;;5202505;28;20496;-48
2023/05/21 10:06:42;;;;;;;7.27;6.60;;;24.70;62.10;;;;;;5202007;28;20465;-48
2023/05/21 10:09:17;;;;;;;9.73;6.90;;;24.70;62.50;;;;;;5198433;28;20489;-48
2023/05/21 10:11:52;;;;;;;7.40;6.63;;;24.70;62.00;;;;;;5198309;28;20430;-48
2023/05/21 10:14:26;;;;;;;8.50;7.23;;;24.70;63.10;;;;;;5196131;28;20464;-48
2023/05/21 10:16:58;;;;;;;16.13;6.70;;;24.80;62.80;;;;;;5189913;28;20569;-48
2023/05/21 10:19:30;;;;;;;8.37;7.10;;;24.80;62.30;;;;;;5196677;28;20858;-47
2023/05/21 10:22:03;;;;;;;8.03;6.40;;;24.90;63.00;;;;;;5191844;28;20437;-47
2023/05/21 10:24:34;;;;;;;11.90;6.30;;;25.00;62.00;;;;;;5188624;28;20460;-47
2023/05/21 10:27:06;;;;;;;6.43;5.47;;;25.00;62.20;;;;;;5191628;28;20552;-48
2023/05/21 10:29:38;;;;;;;21.63;6.63;;;25.10;61.40;;;;;;5192733;28;20446;-46
2023/05/21 10:32:10;;;;;;;10.63;5.60;;;25.20;61.50;;;;;;5197312;28;20444;-47
2023/05/21 10:34:43;;;;;;;11.20;6.13;;;25.20;61.10;;;;;;5196343;28;20465;-46
2023/05/21 10:37:15;;;;;;;7.00;6.40;;;25.30;61.90;;;;;;5193210;28;20469;-48
2023/05/21 10:39:45;;;;;;;8.73;7.20;;;25.40;61.70;;;;;;5194629;28;20772;-47
2023/05/21 10:42:31;;;;;;;8.07;7.07;;;25.40;61.40;;;;;;5196331;28;20438;-46
2023/05/21 10:45:13;;;;;;;7.80;6.73;;;25.40;60.90;;;;;;5200326;28;20548;-47
2023/05/21 10:48:15;;;;;;;8.93;6.13;;;25.40;60.60;;;;;;5196254;28;20468;-47
2023/05/21 10:51:28;;;;;;;6.43;5.83;;;25.50;60.00;;;;;;5197790;28;20464;-45
2023/05/21 10:54:18;;;;;;;6.93;6.03;;;25.40;59.90;;;;;;5195085;28;20465;-47
2023/05/21 10:57:02;;;;;;;9.53;6.77;;;25.30;60.60;;;;;;5197844;28;20454;-47
2023/05/21 10:59:42;;;;;;;7.00;6.40;;;25.30;60.80;;;;;;5213149;28;20537;-47
2023/05/21 11:02:14;;;;;;;7.53;6.80;;;25.30;60.30;;;;;;5196438;28;20950;-47
2023/05/21 11:04:47;;;;;;;7.00;6.00;;;25.20;60.40;;;;;;5199306;28;20438;-47
2023/05/21 11:07:52;;;;;;;6.20;5.53;;;25.30;59.60;;;;;;5189603;28;20462;-46
2023/05/21 11:10:39;;;;;;;12.57;6.17;;;25.30;59.10;;;;;;5192846;28;20448;-47
2023/05/21 11:13:15;;;;;;;8.33;5.60;;;25.50;58.30;;;;;;5192015;28;20438;-48
2023/05/21 11:15:58;;;;;;;6.23;5.63;;;25.70;57.80;;;;;;5199436;28;20442;-48
2023/05/21 11:18:34;;;;;;;6.53;5.40;;;25.70;56.80;;;;;;5201199;28;20438;-47
2023/05/21 11:21:29;;;;;;;7.27;5.07;;;25.70;56.70;;;;;;5193567;28;20426;-47
2023/05/21 11:24:05;;;;;;;6.07;5.57;;;25.80;56.90;;;;;;5198716;28;21020;-46
2023/05/21 11:26:48;;;;;;;6.00;5.03;;;25.80;56.50;;;;;;5202648;28;20465;-46
2023/05/21 11:29:19;;;;;;;8.07;5.60;;;25.80;56.10;;;;;;5198483;28;20515;-47
2023/05/21 11:32:01;;;;;;;5.40;5.00;;;25.90;56.00;;;;;;5203731;28;20434;-48
2023/05/21 11:34:48;;;;;;;6.07;5.37;;;26.20;55.60;;;;;;5193294;28;20449;-47
2023/05/21 11:37:28;;;;;;;5.53;4.90;;;26.40;55.00;;;;;;5200829;28;20490;-49
2023/05/21 11:40:16;;;;;;;5.23;4.70;;;26.50;53.70;;;;;;5195956;28;20426;-46
2023/05/21 11:42:49;;;;;;;6.47;4.43;;;26.60;53.60;;;;;;5202605;28;20461;-48
2023/05/21 11:45:29;;;;;;;6.53;5.00;;;26.60;53.30;;;;;;5199166;28;20521;-47
2023/05/21 11:48:01;;;;;;;5.53;5.10;;;26.70;54.00;;;;;;5203333;28;20468;-55
2023/05/21 11:50:32;;;;;;;5.27;4.87;;;26.80;53.30;;;;;;5204427;28;20442;-48
2023/05/21 11:53:03;;;;;;;5.60;4.30;;;26.70;52.30;;;;;;5201156;28;20436;-47
2023/05/21 11:55:46;;;;;;;9.13;5.70;;;26.60;52.30;;;;;;5200930;28;20439;-47
2023/05/21 11:58:18;;;;;;;22.77;6.63;;;26.60;52.60;;;;;;5194954;28;20191;-46
2023/05/21 12:00:50;;;;;;;7.00;4.70;;;26.60;52.30;;;;;;5196944;28;20556;-48
2023/05/21 12:03:25;;;;;;;5.23;4.80;;;26.60;52.40;;;;;;5199999;28;20538;-48
2023/05/21 12:06:04;;;;;;;6.23;4.30;;;26.40;52.00;;;;;;5201468;28;20808;-49
2023/05/21 12:08:37;;;;;;;5.83;4.70;;;26.30;52.40;;;;;;5201980;28;20457;-46
2023/05/21 12:11:07;;;;;;;4.73;4.33;;;26.40;52.60;;;;;;5201054;28;20434;-47
2023/05/21 12:13:38;;;;;;;5.27;4.77;;;26.50;51.60;;;;;;5199457;28;20422;-45
2023/05/21 12:16:09;;;;;;;9.70;4.50;;;26.50;51.10;;;;;;5202322;28;20281;-46
2023/05/21 12:18:40;;;;;;;10.37;4.87;;;26.60;51.60;;;;;;5218038;28;20187;-45
2023/05/21 12:21:10;;;;;;;5.37;4.97;;;26.60;51.40;;;;;;5199576;28;20715;-46
2023/05/21 12:23:41;;;;;;;5.93;4.67;;;26.60;51.10;;;;;;5205248;28;20188;-45
2023/05/21 12:26:12;;;;;;;15.90;5.27;;;26.40;51.20;;;;;;5204727;28;20259;-47
2023/05/21 12:28:43;;;;;;;7.50;5.00;;;26.30;51.30;;;;;;5201121;28;20203;-45
2023/05/21 12:31:15;;;;;;;8.40;4.90;;;26.30;51.50;;;;;;5198673;28;20450;-45
2023/05/21 12:33:49;;;;;;;6.93;4.73;;;26.40;51.40;;;;;;5202416;28;20180;-45
2023/05/21 12:36:33;;;;;;;10.70;5.00;;;26.40;51.20;;;;;;5199122;28;20949;-48
2023/05/21 12:39:04;;;;;;;5.63;5.13;;;26.50;51.20;;;;;;5201395;28;20441;-46
2023/05/21 12:41:35;;;;;;;6.83;5.43;;;26.50;50.80;;;;;;5203552;28;20438;-46
2023/05/21 12:44:07;;;;;;;6.60;5.13;;;26.50;50.80;;;;;;5206387;28;20206;-46
2023/05/21 12:46:38;;;;;;;7.00;5.40;;;26.50;51.00;;;;;;5202197;28;20465;-45
2023/05/21 12:49:41;;;;;;;5.33;4.83;;;26.50;50.80;;;;;;5209791;28;20587;-45
2023/05/21 12:52:13;;;;;;;5.67;5.27;;;26.50;50.60;;;;;;5210851;28;20185;-47
2023/05/21 12:54:49;;;;;;;6.20;4.70;;;26.50;51.10;;;;;;5198230;28;20497;-46
2023/05/21 12:57:24;;;;;;;5.97;4.30;;;26.40;50.30;;;;;;5220423;28;20460;-46
2023/05/21 12:59:57;;;;;;;5.93;5.43;;;26.40;51.00;;;;;;5208561;28;20427;-44